sensor_id;sensor_type;location;lat;lon;timestamp;P1;durP1;ratioP1;P2;durP2;ratioP2
63346;SDS011;49472;49.880;8.650;2022-10-23T00:01:10;21.30;;;15.47;;
63346;SDS011;49472;49.880;8.650;2022-10-23T00:03:46;21.67;;;16.03;;
63346;SDS011;49472;49.880;8.650;2022-10-23T00:06:17;18.77;;;14.60;;
63346;SDS011;49472;49.880;8.650;2022-10-23T00:08:44;17.70;;;15.93;;
63346;SDS011;49472;49.880;8.650;2022-10-23T00:11:12;16.57;;;14.87;;
63346;SDS011;49472;49.880;8.650;2022-10-23T00:13:39;15.73;;;14.33;;
63346;SDS011;49472;49.880;8.650;2022-10-23T00:16:05;17.50;;;15.10;;
63346;SDS011;49472;49.880;8.650;2022-10-23T00:18:31;19.90;;;15.13;;
63346;SDS011;49472;49.880;8.650;2022-10-23T00:20:56;18.70;;;15.70;;
63346;SDS011;49472;49.880;8.650;2022-10-23T00:23:22;18.23;;;15.37;;
63346;SDS011;49472;49.880;8.650;2022-10-23T00:25:47;16.53;;;14.77;;
63346;SDS011;49472;49.880;8.650;2022-10-23T00:28:13;15.60;;;14.50;;
63346;SDS011;49472;49.880;8.650;2022-10-23T00:30:38;21.73;;;14.60;;
63346;SDS011;49472;49.880;8.650;2022-10-23T00:33:03;16.23;;;14.37;;
63346;SDS011;49472;49.880;8.650;2022-10-23T00:35:28;15.63;;;14.00;;
63346;SDS011;49472;49.880;8.650;2022-10-23T00:37:54;14.73;;;13.50;;
63346;SDS011;49472;49.880;8.650;2022-10-23T00:40:19;17.33;;;14.07;;
63346;SDS011;49472;49.880;8.650;2022-10-23T00:42:44;17.37;;;14.63;;
63346;SDS011;49472;49.880;8.650;2022-10-23T00:45:18;16.67;;;15.13;;
63346;SDS011;49472;49.880;8.650;2022-10-23T00:47:43;15.37;;;14.07;;
63346;SDS011;49472;49.880;8.650;2022-10-23T00:50:09;15.20;;;14.10;;
63346;SDS011;49472;49.880;8.650;2022-10-23T00:52:36;16.23;;;13.80;;
63346;SDS011;49472;49.880;8.650;2022-10-23T00:55:09;15.77;;;14.00;;
63346;SDS011;49472;49.880;8.650;2022-10-23T00:57:34;22.60;;;14.40;;
63346;SDS011;49472;49.880;8.650;2022-10-23T01:00:00;16.50;;;14.67;;
63346;SDS011;49472;49.880;8.650;2022-10-23T01:02:25;20.57;;;13.43;;
63346;SDS011;49472;49.880;8.650;2022-10-23T01:04:50;22.17;;;15.57;;
63346;SDS011;49472;49.880;8.650;2022-10-23T01:07:18;16.50;;;13.90;;
63346;SDS011;49472;49.880;8.650;2022-10-23T01:09:58;15.60;;;14.20;;
63346;SDS011;49472;49.880;8.650;2022-10-23T01:12:34;17.97;;;14.67;;
63346;SDS011;49472;49.880;8.650;2022-10-23T01:23:10;14.20;;;13.00;;
63346;SDS011;49472;49.880;8.650;2022-10-23T01:25:58;14.80;;;13.50;;
63346;SDS011;49472;49.880;8.650;2022-10-23T01:31:24;20.63;;;14.50;;
63346;SDS011;49472;49.880;8.650;2022-10-23T01:34:04;17.20;;;14.70;;
63346;SDS011;49472;49.880;8.650;2022-10-23T01:36:36;14.90;;;13.60;;
63346;SDS011;49472;49.880;8.650;2022-10-23T01:39:13;14.67;;;13.57;;
63346;SDS011;49472;49.880;8.650;2022-10-23T01:41:54;27.83;;;14.50;;
63346;SDS011;49472;49.880;8.650;2022-10-23T01:44:38;16.50;;;14.17;;
63346;SDS011;49472;49.880;8.650;2022-10-23T01:47:06;15.30;;;13.73;;
63346;SDS011;49472;49.880;8.650;2022-10-23T01:49:34;15.40;;;13.70;;
63346;SDS011;49472;49.880;8.650;2022-10-23T01:52:04;15.13;;;13.60;;
63346;SDS011;49472;49.880;8.650;2022-10-23T01:54:32;35.53;;;14.70;;
63346;SDS011;49472;49.880;8.650;2022-10-23T01:57:00;17.10;;;13.83;;
63346;SDS011;49472;49.880;8.650;2022-10-23T01:59:34;15.10;;;13.60;;
63346;SDS011;49472;49.880;8.650;2022-10-23T02:02:03;14.10;;;13.00;;
63346;SDS011;49472;49.880;8.650;2022-10-23T02:04:34;14.73;;;13.30;;
63346;SDS011;49472;49.880;8.650;2022-10-23T02:07:02;16.77;;;13.43;;
63346;SDS011;49472;49.880;8.650;2022-10-23T02:09:28;14.87;;;13.53;;
63346;SDS011;49472;49.880;8.650;2022-10-23T02:11:58;15.93;;;13.60;;
63346;SDS011;49472;49.880;8.650;2022-10-23T02:14:36;14.97;;;13.43;;
63346;SDS011;49472;49.880;8.650;2022-10-23T02:17:10;16.73;;;13.10;;
63346;SDS011;49472;49.880;8.650;2022-10-23T02:19:46;15.80;;;14.00;;
63346;SDS011;49472;49.880;8.650;2022-10-23T02:22:22;14.40;;;13.20;;
63346;SDS011;49472;49.880;8.650;2022-10-23T02:24:56;16.40;;;14.80;;
63346;SDS011;49472;49.880;8.650;2022-10-23T02:30:08;14.77;;;13.50;;
63346;SDS011;49472;49.880;8.650;2022-10-23T02:32:37;14.97;;;13.73;;
63346;SDS011;49472;49.880;8.650;2022-10-23T02:35:05;15.10;;;13.67;;
63346;SDS011;49472;49.880;8.650;2022-10-23T02:37:31;14.77;;;13.70;;
63346;SDS011;49472;49.880;8.650;2022-10-23T02:39:57;15.00;;;13.73;;
63346;SDS011;49472;49.880;8.650;2022-10-23T02:52:45;15.23;;;14.03;;
63346;SDS011;49472;49.880;8.650;2022-10-23T02:55:19;14.97;;;13.53;;
63346;SDS011;49472;49.880;8.650;2022-10-23T02:57:47;16.43;;;14.87;;
63346;SDS011;49472;49.880;8.650;2022-10-23T03:00:20;15.70;;;14.23;;
63346;SDS011;49472;49.880;8.650;2022-10-23T03:05:19;15.50;;;14.07;;
63346;SDS011;49472;49.880;8.650;2022-10-23T03:07:47;14.77;;;13.50;;
63346;SDS011;49472;49.880;8.650;2022-10-23T03:10:14;15.80;;;14.30;;
63346;SDS011;49472;49.880;8.650;2022-10-23T03:12:39;16.07;;;14.30;;
63346;SDS011;49472;49.880;8.650;2022-10-23T03:15:05;16.40;;;14.90;;
63346;SDS011;49472;49.880;8.650;2022-10-23T03:17:31;15.40;;;13.60;;
63346;SDS011;49472;49.880;8.650;2022-10-23T03:19:57;15.37;;;14.17;;
63346;SDS011;49472;49.880;8.650;2022-10-23T03:22:23;15.30;;;14.00;;
63346;SDS011;49472;49.880;8.650;2022-10-23T03:24:48;29.33;;;16.20;;
63346;SDS011;49472;49.880;8.650;2022-10-23T03:27:13;18.03;;;14.40;;
63346;SDS011;49472;49.880;8.650;2022-10-23T03:29:40;15.50;;;14.30;;
63346;SDS011;49472;49.880;8.650;2022-10-23T03:32:05;14.90;;;13.60;;
63346;SDS011;49472;49.880;8.650;2022-10-23T03:34:30;16.60;;;15.10;;
63346;SDS011;49472;49.880;8.650;2022-10-23T03:36:56;14.87;;;13.57;;
63346;SDS011;49472;49.880;8.650;2022-10-23T03:39:21;15.90;;;14.50;;
63346;SDS011;49472;49.880;8.650;2022-10-23T03:41:46;15.43;;;14.20;;
63346;SDS011;49472;49.880;8.650;2022-10-23T03:44:12;15.70;;;14.50;;
63346;SDS011;49472;49.880;8.650;2022-10-23T03:46:37;16.03;;;14.47;;
63346;SDS011;49472;49.880;8.650;2022-10-23T03:49:03;17.33;;;14.10;;
63346;SDS011;49472;49.880;8.650;2022-10-23T03:51:28;15.53;;;14.10;;
63346;SDS011;49472;49.880;8.650;2022-10-23T03:53:53;15.83;;;14.60;;
63346;SDS011;49472;49.880;8.650;2022-10-23T03:56:19;16.37;;;14.70;;
63346;SDS011;49472;49.880;8.650;2022-10-23T03:58:44;19.53;;;14.00;;
63346;SDS011;49472;49.880;8.650;2022-10-23T04:01:10;16.03;;;14.33;;
63346;SDS011;49472;49.880;8.650;2022-10-23T04:03:38;20.13;;;14.50;;
63346;SDS011;49472;49.880;8.650;2022-10-23T04:06:03;14.40;;;13.40;;
63346;SDS011;49472;49.880;8.650;2022-10-23T04:08:28;14.80;;;13.40;;
63346;SDS011;49472;49.880;8.650;2022-10-23T04:10:54;18.03;;;14.27;;
63346;SDS011;49472;49.880;8.650;2022-10-23T04:13:19;14.60;;;13.50;;
63346;SDS011;49472;49.880;8.650;2022-10-23T04:15:48;15.00;;;13.77;;
63346;SDS011;49472;49.880;8.650;2022-10-23T04:18:14;16.37;;;14.37;;
63346;SDS011;49472;49.880;8.650;2022-10-23T04:20:40;15.17;;;13.83;;
63346;SDS011;49472;49.880;8.650;2022-10-23T04:23:05;16.20;;;14.30;;
63346;SDS011;49472;49.880;8.650;2022-10-23T04:25:30;15.67;;;14.10;;
63346;SDS011;49472;49.880;8.650;2022-10-23T04:27:56;16.93;;;14.13;;
63346;SDS011;49472;49.880;8.650;2022-10-23T04:30:21;16.00;;;14.37;;
63346;SDS011;49472;49.880;8.650;2022-10-23T04:32:49;24.97;;;13.97;;
63346;SDS011;49472;49.880;8.650;2022-10-23T04:35:15;16.27;;;14.40;;
63346;SDS011;49472;49.880;8.650;2022-10-23T04:37:40;14.87;;;13.83;;
63346;SDS011;49472;49.880;8.650;2022-10-23T04:40:06;15.93;;;13.80;;
63346;SDS011;49472;49.880;8.650;2022-10-23T04:42:32;16.80;;;15.40;;
63346;SDS011;49472;49.880;8.650;2022-10-23T04:44:57;26.23;;;15.97;;
63346;SDS011;49472;49.880;8.650;2022-10-23T04:47:22;15.77;;;14.47;;
63346;SDS011;49472;49.880;8.650;2022-10-23T04:49:48;15.80;;;14.37;;
63346;SDS011;49472;49.880;8.650;2022-10-23T04:52:14;16.33;;;14.60;;
63346;SDS011;49472;49.880;8.650;2022-10-23T04:54:39;15.43;;;14.10;;
63346;SDS011;49472;49.880;8.650;2022-10-23T04:57:04;18.53;;;14.17;;
63346;SDS011;49472;49.880;8.650;2022-10-23T04:59:30;27.03;;;14.50;;
63346;SDS011;49472;49.880;8.650;2022-10-23T05:01:55;15.07;;;13.97;;
63346;SDS011;49472;49.880;8.650;2022-10-23T05:04:20;16.90;;;14.33;;
63346;SDS011;49472;49.880;8.650;2022-10-23T05:06:46;16.30;;;13.73;;
63346;SDS011;49472;49.880;8.650;2022-10-23T05:09:11;16.37;;;14.40;;
63346;SDS011;49472;49.880;8.650;2022-10-23T05:11:36;15.80;;;14.30;;
63346;SDS011;49472;49.880;8.650;2022-10-23T05:14:01;18.83;;;14.50;;
63346;SDS011;49472;49.880;8.650;2022-10-23T05:19:01;16.17;;;14.43;;
63346;SDS011;49472;49.880;8.650;2022-10-23T05:21:28;19.73;;;14.03;;
63346;SDS011;49472;49.880;8.650;2022-10-23T05:23:55;15.47;;;14.17;;
63346;SDS011;49472;49.880;8.650;2022-10-23T05:26:21;15.63;;;14.07;;
63346;SDS011;49472;49.880;8.650;2022-10-23T05:28:47;16.03;;;14.33;;
63346;SDS011;49472;49.880;8.650;2022-10-23T05:31:12;16.90;;;14.00;;
63346;SDS011;49472;49.880;8.650;2022-10-23T05:33:39;17.00;;;15.60;;
63346;SDS011;49472;49.880;8.650;2022-10-23T05:36:05;16.03;;;14.80;;
63346;SDS011;49472;49.880;8.650;2022-10-23T05:38:32;16.13;;;15.00;;
63346;SDS011;49472;49.880;8.650;2022-10-23T05:40:59;18.23;;;16.40;;
63346;SDS011;49472;49.880;8.650;2022-10-23T05:43:24;17.10;;;15.30;;
63346;SDS011;49472;49.880;8.650;2022-10-23T05:45:51;18.03;;;14.77;;
63346;SDS011;49472;49.880;8.650;2022-10-23T05:48:17;19.33;;;16.13;;
63346;SDS011;49472;49.880;8.650;2022-10-23T05:50:42;17.33;;;15.63;;
63346;SDS011;49472;49.880;8.650;2022-10-23T05:53:10;16.03;;;14.90;;
63346;SDS011;49472;49.880;8.650;2022-10-23T05:55:36;16.43;;;15.17;;
63346;SDS011;49472;49.880;8.650;2022-10-23T05:58:02;15.97;;;14.57;;
63346;SDS011;49472;49.880;8.650;2022-10-23T06:00:27;16.60;;;15.00;;
63346;SDS011;49472;49.880;8.650;2022-10-23T06:02:53;15.30;;;14.17;;
63346;SDS011;49472;49.880;8.650;2022-10-23T06:05:18;15.73;;;14.47;;
63346;SDS011;49472;49.880;8.650;2022-10-23T06:07:43;16.70;;;15.20;;
63346;SDS011;49472;49.880;8.650;2022-10-23T06:10:09;15.73;;;14.53;;
63346;SDS011;49472;49.880;8.650;2022-10-23T06:12:34;18.23;;;14.63;;
63346;SDS011;49472;49.880;8.650;2022-10-23T06:14:59;16.93;;;15.00;;
63346;SDS011;49472;49.880;8.650;2022-10-23T06:17:25;17.10;;;15.47;;
63346;SDS011;49472;49.880;8.650;2022-10-23T06:19:51;17.63;;;15.80;;
63346;SDS011;49472;49.880;8.650;2022-10-23T06:22:17;15.43;;;14.33;;
63346;SDS011;49472;49.880;8.650;2022-10-23T06:24:42;19.20;;;15.00;;
63346;SDS011;49472;49.880;8.650;2022-10-23T06:27:08;15.97;;;14.80;;
63346;SDS011;49472;49.880;8.650;2022-10-23T06:29:33;15.80;;;14.70;;
63346;SDS011;49472;49.880;8.650;2022-10-23T06:31:58;16.57;;;14.63;;
63346;SDS011;49472;49.880;8.650;2022-10-23T06:34:24;17.53;;;15.80;;
63346;SDS011;49472;49.880;8.650;2022-10-23T06:36:49;17.40;;;15.77;;
63346;SDS011;49472;49.880;8.650;2022-10-23T06:39:14;17.13;;;15.60;;
63346;SDS011;49472;49.880;8.650;2022-10-23T06:41:40;17.23;;;15.53;;
63346;SDS011;49472;49.880;8.650;2022-10-23T06:44:06;23.63;;;15.67;;
63346;SDS011;49472;49.880;8.650;2022-10-23T06:46:34;17.10;;;15.63;;
63346;SDS011;49472;49.880;8.650;2022-10-23T06:48:59;16.80;;;15.50;;
63346;SDS011;49472;49.880;8.650;2022-10-23T06:51:25;20.23;;;16.00;;
63346;SDS011;49472;49.880;8.650;2022-10-23T06:53:53;17.10;;;15.90;;
63346;SDS011;49472;49.880;8.650;2022-10-23T06:56:19;17.60;;;15.90;;
63346;SDS011;49472;49.880;8.650;2022-10-23T06:58:44;21.30;;;16.73;;
63346;SDS011;49472;49.880;8.650;2022-10-23T07:01:10;17.00;;;15.60;;
63346;SDS011;49472;49.880;8.650;2022-10-23T07:03:37;16.93;;;15.53;;
63346;SDS011;49472;49.880;8.650;2022-10-23T07:06:03;18.07;;;16.07;;
63346;SDS011;49472;49.880;8.650;2022-10-23T07:08:29;16.60;;;15.30;;
63346;SDS011;49472;49.880;8.650;2022-10-23T07:10:55;17.70;;;16.30;;
63346;SDS011;49472;49.880;8.650;2022-10-23T07:13:20;17.23;;;15.60;;
63346;SDS011;49472;49.880;8.650;2022-10-23T07:15:46;20.43;;;15.20;;
63346;SDS011;49472;49.880;8.650;2022-10-23T07:18:11;17.37;;;15.87;;
63346;SDS011;49472;49.880;8.650;2022-10-23T07:20:39;16.30;;;14.83;;
63346;SDS011;49472;49.880;8.650;2022-10-23T07:23:05;16.87;;;15.57;;
63346;SDS011;49472;49.880;8.650;2022-10-23T07:25:31;17.40;;;15.77;;
63346;SDS011;49472;49.880;8.650;2022-10-23T07:27:57;17.67;;;14.90;;
63346;SDS011;49472;49.880;8.650;2022-10-23T07:30:22;16.27;;;15.20;;
63346;SDS011;49472;49.880;8.650;2022-10-23T07:32:48;16.87;;;15.57;;
63346;SDS011;49472;49.880;8.650;2022-10-23T07:35:14;16.20;;;15.00;;
63346;SDS011;49472;49.880;8.650;2022-10-23T07:37:39;17.30;;;15.73;;
63346;SDS011;49472;49.880;8.650;2022-10-23T07:40:05;17.53;;;15.37;;
63346;SDS011;49472;49.880;8.650;2022-10-23T07:42:31;17.60;;;15.83;;
63346;SDS011;49472;49.880;8.650;2022-10-23T07:44:57;18.33;;;16.60;;
63346;SDS011;49472;49.880;8.650;2022-10-23T07:47:22;21.13;;;18.40;;
63346;SDS011;49472;49.880;8.650;2022-10-23T07:49:47;16.60;;;15.23;;
63346;SDS011;49472;49.880;8.650;2022-10-23T07:52:13;16.70;;;15.00;;
63346;SDS011;49472;49.880;8.650;2022-10-23T07:54:38;17.93;;;14.67;;
63346;SDS011;49472;49.880;8.650;2022-10-23T07:57:04;16.63;;;15.27;;
63346;SDS011;49472;49.880;8.650;2022-10-23T07:59:31;15.20;;;14.20;;
63346;SDS011;49472;49.880;8.650;2022-10-23T08:01:57;17.23;;;15.53;;
63346;SDS011;49472;49.880;8.650;2022-10-23T08:04:23;16.70;;;15.00;;
63346;SDS011;49472;49.880;8.650;2022-10-23T08:06:49;16.70;;;14.97;;
63346;SDS011;49472;49.880;8.650;2022-10-23T08:09:14;16.60;;;15.00;;
63346;SDS011;49472;49.880;8.650;2022-10-23T08:11:39;16.83;;;14.17;;
63346;SDS011;49472;49.880;8.650;2022-10-23T08:14:05;14.93;;;13.97;;
63346;SDS011;49472;49.880;8.650;2022-10-23T08:16:32;14.97;;;13.87;;
63346;SDS011;49472;49.880;8.650;2022-10-23T08:18:59;15.03;;;13.63;;
63346;SDS011;49472;49.880;8.650;2022-10-23T08:21:25;17.67;;;14.60;;
63346;SDS011;49472;49.880;8.650;2022-10-23T08:23:54;14.73;;;13.43;;
63346;SDS011;49472;49.880;8.650;2022-10-23T08:26:21;15.13;;;13.63;;
63346;SDS011;49472;49.880;8.650;2022-10-23T08:28:48;16.47;;;14.67;;
63346;SDS011;49472;49.880;8.650;2022-10-23T08:31:15;16.13;;;14.67;;
63346;SDS011;49472;49.880;8.650;2022-10-23T08:33:42;17.80;;;16.30;;
63346;SDS011;49472;49.880;8.650;2022-10-23T08:38:44;19.23;;;14.87;;
63346;SDS011;49472;49.880;8.650;2022-10-23T08:41:52;16.27;;;14.90;;
63346;SDS011;49472;49.880;8.650;2022-10-23T08:46:54;18.30;;;14.40;;
63346;SDS011;49472;49.880;8.650;2022-10-23T08:51:54;16.00;;;14.63;;
63346;SDS011;49472;49.880;8.650;2022-10-23T08:54:27;15.47;;;14.00;;
63346;SDS011;49472;49.880;8.650;2022-10-23T08:57:10;14.30;;;13.30;;
63346;SDS011;49472;49.880;8.650;2022-10-23T08:59:40;14.77;;;13.77;;
63346;SDS011;49472;49.880;8.650;2022-10-23T09:04:43;15.17;;;13.60;;
63346;SDS011;49472;49.880;8.650;2022-10-23T09:10:13;14.50;;;13.60;;
63346;SDS011;49472;49.880;8.650;2022-10-23T09:12:43;15.43;;;14.17;;
63346;SDS011;49472;49.880;8.650;2022-10-23T09:15:13;21.17;;;13.60;;
63346;SDS011;49472;49.880;8.650;2022-10-23T09:17:47;16.20;;;14.50;;
63346;SDS011;49472;49.880;8.650;2022-10-23T09:20:29;14.80;;;13.70;;
63346;SDS011;49472;49.880;8.650;2022-10-23T09:22:59;16.37;;;14.90;;
63346;SDS011;49472;49.880;8.650;2022-10-23T09:25:28;15.83;;;14.47;;
63346;SDS011;49472;49.880;8.650;2022-10-23T09:27:58;16.63;;;15.23;;
63346;SDS011;49472;49.880;8.650;2022-10-23T09:30:35;14.67;;;13.67;;
63346;SDS011;49472;49.880;8.650;2022-10-23T09:35:58;17.40;;;15.90;;
63346;SDS011;49472;49.880;8.650;2022-10-23T09:41:26;15.87;;;14.47;;
63346;SDS011;49472;49.880;8.650;2022-10-23T09:44:12;16.03;;;14.30;;
63346;SDS011;49472;49.880;8.650;2022-10-23T09:46:45;15.83;;;14.50;;
63346;SDS011;49472;49.880;8.650;2022-10-23T09:49:25;16.27;;;14.93;;
63346;SDS011;49472;49.880;8.650;2022-10-23T09:51:58;18.17;;;15.93;;
63346;SDS011;49472;49.880;8.650;2022-10-23T09:54:30;16.23;;;14.57;;
63346;SDS011;49472;49.880;8.650;2022-10-23T09:57:00;17.57;;;15.73;;
63346;SDS011;49472;49.880;8.650;2022-10-23T09:59:39;16.60;;;15.10;;
63346;SDS011;49472;49.880;8.650;2022-10-23T10:02:19;16.87;;;15.20;;
63346;SDS011;49472;49.880;8.650;2022-10-23T10:04:45;15.53;;;14.43;;
63346;SDS011;49472;49.880;8.650;2022-10-23T10:07:17;19.53;;;14.60;;
63346;SDS011;49472;49.880;8.650;2022-10-23T10:09:47;17.47;;;15.40;;
63346;SDS011;49472;49.880;8.650;2022-10-23T10:14:58;15.83;;;14.40;;
63346;SDS011;49472;49.880;8.650;2022-10-23T10:23:06;17.10;;;15.60;;
63346;SDS011;49472;49.880;8.650;2022-10-23T10:25:45;22.53;;;15.77;;
63346;SDS011;49472;49.880;8.650;2022-10-23T10:28:42;19.00;;;17.07;;
63346;SDS011;49472;49.880;8.650;2022-10-23T10:34:05;17.80;;;15.87;;
63346;SDS011;49472;49.880;8.650;2022-10-23T10:39:23;16.27;;;14.77;;
63346;SDS011;49472;49.880;8.650;2022-10-23T10:42:01;15.37;;;13.93;;
63346;SDS011;49472;49.880;8.650;2022-10-23T10:44:34;17.00;;;15.50;;
63346;SDS011;49472;49.880;8.650;2022-10-23T10:47:11;15.30;;;14.30;;
63346;SDS011;49472;49.880;8.650;2022-10-23T10:49:42;16.40;;;14.73;;
63346;SDS011;49472;49.880;8.650;2022-10-23T10:52:29;16.13;;;14.50;;
63346;SDS011;49472;49.880;8.650;2022-10-23T10:57:55;16.30;;;14.70;;
63346;SDS011;49472;49.880;8.650;2022-10-23T11:00:23;17.93;;;14.57;;
63346;SDS011;49472;49.880;8.650;2022-10-23T11:08:06;13.83;;;12.83;;
63346;SDS011;49472;49.880;8.650;2022-10-23T11:10:35;14.73;;;13.30;;
63346;SDS011;49472;49.880;8.650;2022-10-23T11:13:04;13.83;;;12.63;;
63346;SDS011;49472;49.880;8.650;2022-10-23T11:15:34;13.90;;;13.00;;
63346;SDS011;49472;49.880;8.650;2022-10-23T11:18:11;16.07;;;14.40;;
63346;SDS011;49472;49.880;8.650;2022-10-23T11:21:04;13.67;;;12.77;;
63346;SDS011;49472;49.880;8.650;2022-10-23T11:37:28;13.80;;;12.67;;
63346;SDS011;49472;49.880;8.650;2022-10-23T11:40:14;15.00;;;12.70;;
63346;SDS011;49472;49.880;8.650;2022-10-23T11:42:46;13.27;;;12.27;;
63346;SDS011;49472;49.880;8.650;2022-10-23T11:50:28;13.93;;;12.77;;
63346;SDS011;49472;49.880;8.650;2022-10-23T11:52:55;13.30;;;12.60;;
63346;SDS011;49472;49.880;8.650;2022-10-23T11:55:24;12.90;;;12.10;;
63346;SDS011;49472;49.880;8.650;2022-10-23T12:00:29;17.75;;;13.77;;
63346;SDS011;49472;49.880;8.650;2022-10-23T12:02:56;22.15;;;11.60;;
63346;SDS011;49472;49.880;8.650;2022-10-23T12:05:35;11.85;;;11.25;;
63346;SDS011;49472;49.880;8.650;2022-10-23T12:08:06;12.07;;;11.30;;
63346;SDS011;49472;49.880;8.650;2022-10-23T12:10:44;12.50;;;11.45;;
63346;SDS011;49472;49.880;8.650;2022-10-23T12:15:55;12.38;;;11.43;;
63346;SDS011;49472;49.880;8.650;2022-10-23T12:18:20;12.25;;;11.55;;
63346;SDS011;49472;49.880;8.650;2022-10-23T12:20:58;13.63;;;12.27;;
63346;SDS011;49472;49.880;8.650;2022-10-23T12:28:47;12.30;;;11.50;;
63346;SDS011;49472;49.880;8.650;2022-10-23T12:31:24;12.10;;;11.18;;
63346;SDS011;49472;49.880;8.650;2022-10-23T12:39:57;11.27;;;10.60;;
63346;SDS011;49472;49.880;8.650;2022-10-23T12:42:26;14.30;;;10.93;;
63346;SDS011;49472;49.880;8.650;2022-10-23T12:47:48;11.80;;;10.60;;
63346;SDS011;49472;49.880;8.650;2022-10-23T12:50:22;10.52;;;10.02;;
63346;SDS011;49472;49.880;8.650;2022-10-23T12:53:00;11.88;;;10.70;;
63346;SDS011;49472;49.880;8.650;2022-10-23T12:55:44;14.00;;;10.88;;
63346;SDS011;49472;49.880;8.650;2022-10-23T12:58:22;11.35;;;10.55;;
63346;SDS011;49472;49.880;8.650;2022-10-23T13:00:57;14.65;;;11.35;;
63346;SDS011;49472;49.880;8.650;2022-10-23T13:03:28;12.02;;;10.95;;
63346;SDS011;49472;49.880;8.650;2022-10-23T13:05:55;12.50;;;11.43;;
63346;SDS011;49472;49.880;8.650;2022-10-23T13:08:39;12.05;;;10.93;;
63346;SDS011;49472;49.880;8.650;2022-10-23T13:11:08;11.90;;;10.90;;
63346;SDS011;49472;49.880;8.650;2022-10-23T13:13:39;14.75;;;10.90;;
63346;SDS011;49472;49.880;8.650;2022-10-23T13:18:41;10.50;;;9.88;;
63346;SDS011;49472;49.880;8.650;2022-10-23T13:21:09;11.73;;;10.93;;
63346;SDS011;49472;49.880;8.650;2022-10-23T13:23:57;12.02;;;11.00;;
63346;SDS011;49472;49.880;8.650;2022-10-23T13:28:52;11.80;;;11.00;;
63346;SDS011;49472;49.880;8.650;2022-10-23T13:31:25;11.45;;;10.57;;
63346;SDS011;49472;49.880;8.650;2022-10-23T13:36:24;12.00;;;10.50;;
63346;SDS011;49472;49.880;8.650;2022-10-23T13:41:34;12.02;;;10.80;;
63346;SDS011;49472;49.880;8.650;2022-10-23T13:44:05;17.20;;;10.85;;
63346;SDS011;49472;49.880;8.650;2022-10-23T13:46:31;12.10;;;11.07;;
63346;SDS011;49472;49.880;8.650;2022-10-23T13:48:56;11.93;;;11.25;;
63346;SDS011;49472;49.880;8.650;2022-10-23T13:51:26;15.55;;;11.63;;
63346;SDS011;49472;49.880;8.650;2022-10-23T13:53:54;11.93;;;11.10;;
63346;SDS011;49472;49.880;8.650;2022-10-23T13:56:21;13.27;;;11.50;;
63346;SDS011;49472;49.880;8.650;2022-10-23T13:58:47;11.38;;;10.77;;
63346;SDS011;49472;49.880;8.650;2022-10-23T14:01:20;11.77;;;11.07;;
63346;SDS011;49472;49.880;8.650;2022-10-23T14:03:51;12.45;;;11.75;;
63346;SDS011;49472;49.880;8.650;2022-10-23T14:06:17;13.00;;;11.65;;
63346;SDS011;49472;49.880;8.650;2022-10-23T14:08:43;11.68;;;10.93;;
63346;SDS011;49472;49.880;8.650;2022-10-23T14:11:09;12.02;;;11.02;;
63346;SDS011;49472;49.880;8.650;2022-10-23T14:13:35;11.75;;;10.85;;
63346;SDS011;49472;49.880;8.650;2022-10-23T14:16:01;13.77;;;11.02;;
63346;SDS011;49472;49.880;8.650;2022-10-23T14:18:26;12.75;;;11.75;;
63346;SDS011;49472;49.880;8.650;2022-10-23T14:20:52;12.40;;;11.52;;
63346;SDS011;49472;49.880;8.650;2022-10-23T14:23:17;11.57;;;10.98;;
63346;SDS011;49472;49.880;8.650;2022-10-23T14:25:42;11.80;;;11.00;;
63346;SDS011;49472;49.880;8.650;2022-10-23T14:28:08;11.80;;;11.05;;
63346;SDS011;49472;49.880;8.650;2022-10-23T14:30:34;12.18;;;11.48;;
63346;SDS011;49472;49.880;8.650;2022-10-23T14:33:00;12.63;;;11.63;;
63346;SDS011;49472;49.880;8.650;2022-10-23T14:35:26;12.55;;;11.45;;
63346;SDS011;49472;49.880;8.650;2022-10-23T14:37:51;13.65;;;11.88;;
63346;SDS011;49472;49.880;8.650;2022-10-23T14:40:17;12.00;;;11.15;;
63346;SDS011;49472;49.880;8.650;2022-10-23T14:42:42;12.63;;;11.73;;
63346;SDS011;49472;49.880;8.650;2022-10-23T14:45:08;15.73;;;11.52;;
63346;SDS011;49472;49.880;8.650;2022-10-23T14:47:33;13.18;;;12.38;;
63346;SDS011;49472;49.880;8.650;2022-10-23T14:49:59;14.80;;;13.27;;
63346;SDS011;49472;49.880;8.650;2022-10-23T14:52:24;15.45;;;12.70;;
63346;SDS011;49472;49.880;8.650;2022-10-23T14:54:50;14.20;;;13.05;;
63346;SDS011;49472;49.880;8.650;2022-10-23T14:57:17;15.13;;;13.52;;
63346;SDS011;49472;49.880;8.650;2022-10-23T14:59:45;14.02;;;12.93;;
63346;SDS011;49472;49.880;8.650;2022-10-23T15:02:10;14.05;;;12.95;;
63346;SDS011;49472;49.880;8.650;2022-10-23T15:04:35;16.50;;;14.07;;
63346;SDS011;49472;49.880;8.650;2022-10-23T15:07:01;15.18;;;13.25;;
63346;SDS011;49472;49.880;8.650;2022-10-23T15:09:27;13.45;;;12.55;;
63346;SDS011;49472;49.880;8.650;2022-10-23T15:11:52;17.85;;;13.05;;
63346;SDS011;49472;49.880;8.650;2022-10-23T15:14:17;14.82;;;12.85;;
63346;SDS011;49472;49.880;8.650;2022-10-23T15:16:43;16.40;;;13.75;;
63346;SDS011;49472;49.880;8.650;2022-10-23T15:19:09;13.25;;;12.35;;
63346;SDS011;49472;49.880;8.650;2022-10-23T15:21:35;15.18;;;13.77;;
63346;SDS011;49472;49.880;8.650;2022-10-23T15:24:01;15.68;;;14.07;;
63346;SDS011;49472;49.880;8.650;2022-10-23T15:26:27;15.45;;;13.88;;
63346;SDS011;49472;49.880;8.650;2022-10-23T15:28:53;15.25;;;13.98;;
63346;SDS011;49472;49.880;8.650;2022-10-23T15:34:08;21.40;;;15.05;;
63346;SDS011;49472;49.880;8.650;2022-10-23T15:36:44;18.52;;;14.68;;
63346;SDS011;49472;49.880;8.650;2022-10-23T15:39:11;15.17;;;13.57;;
63346;SDS011;49472;49.880;8.650;2022-10-23T15:41:39;15.13;;;12.87;;
63346;SDS011;49472;49.880;8.650;2022-10-23T15:44:06;15.07;;;13.80;;
63346;SDS011;49472;49.880;8.650;2022-10-23T15:46:32;15.27;;;14.13;;
63346;SDS011;49472;49.880;8.650;2022-10-23T15:48:58;15.83;;;14.17;;
63346;SDS011;49472;49.880;8.650;2022-10-23T15:51:23;17.17;;;15.57;;
63346;SDS011;49472;49.880;8.650;2022-10-23T15:53:49;18.83;;;14.00;;
63346;SDS011;49472;49.880;8.650;2022-10-23T15:56:14;16.23;;;14.30;;
63346;SDS011;49472;49.880;8.650;2022-10-23T15:58:40;15.87;;;14.47;;
63346;SDS011;49472;49.880;8.650;2022-10-23T16:01:05;17.17;;;14.43;;
63346;SDS011;49472;49.880;8.650;2022-10-23T16:03:31;15.40;;;14.20;;
63346;SDS011;49472;49.880;8.650;2022-10-23T16:05:57;16.13;;;14.60;;
63346;SDS011;49472;49.880;8.650;2022-10-23T16:08:22;24.97;;;14.63;;
63346;SDS011;49472;49.880;8.650;2022-10-23T16:10:50;16.13;;;14.67;;
63346;SDS011;49472;49.880;8.650;2022-10-23T16:13:15;18.00;;;14.50;;
63346;SDS011;49472;49.880;8.650;2022-10-23T16:15:41;26.27;;;16.30;;
63346;SDS011;49472;49.880;8.650;2022-10-23T16:18:06;17.67;;;15.93;;
63346;SDS011;49472;49.880;8.650;2022-10-23T16:20:32;17.17;;;14.80;;
63346;SDS011;49472;49.880;8.650;2022-10-23T16:22:58;21.63;;;16.67;;
63346;SDS011;49472;49.880;8.650;2022-10-23T16:25:23;15.87;;;14.20;;
63346;SDS011;49472;49.880;8.650;2022-10-23T16:27:48;15.70;;;14.10;;
63346;SDS011;49472;49.880;8.650;2022-10-23T16:30:14;30.93;;;15.20;;